Latest Weather Observations for Cessnock Airport

IDN60801

Issued at 9:02 pm EDT Sunday 26 February 2017 (issued every 30 minutes, with the page automatically refreshed every 10 minutes)

About weather observations | Map of weather stations | Latest weather observations for NSW | Other Formats
Station Details ID: 061260 Name: CESSNOCK AIRPORT AWS Lat: -32.79 Lon: 151.34 Height: 61.0 m
Data from the previous 72 hours. | See also: Recent months at Cessnock Airport
Date/Time
EDT
Temp
°C
App
Temp
°C
Dew
Point
°C
Rel
Hum
%
Delta-T
°C
Wind Press
QNH
hPa
Press
MSL
hPa
Rain since
9am
mm
Dir  Spd
km/h
Gust
km/h
Spd
kts
Gust
kts
26/09:00pm 20.3 18.7 15.1 72 3.1 S 17 19 9 10 1021.7 1021.5 0.0
26/08:30pm 20.6 17.6 14.9 70 3.3 S 24 37 13 20 1021.3 1021.1 0.0
26/08:00pm 21.6 20.5 15.2 67 3.8 SSE 15 20 8 11 1021.0 1020.8 0.0
26/07:30pm 21.2 19.5 14.8 67 3.8 S 17 28 9 15 1020.6 1020.4 0.0
26/07:00pm 21.8 20.1 14.7 64 4.2 SSE 17 28 9 15 1020.4 1020.2 0.0
26/06:30pm 22.0 18.7 14.1 61 4.6 S 24 33 13 18 1020.1 1019.9 0.0
26/06:00pm 22.4 18.1 14.3 60 4.7 S 30 39 16 21 1020.1 1019.9 0.0
26/05:39pm 23.6 19.7 14.3 56 5.5 SSE 28 46 15 25 1019.9 1019.7 0.0
26/05:30pm 24.3 20.9 13.8 52 6.2 SSE 24 35 13 19 1019.7 1019.5 0.0
26/05:00pm 24.7 21.1 13.0 48 6.8 SSE 24 32 13 17 1019.6 1019.4 0.0
26/04:30pm 24.7 21.0 12.6 47 7.0 S 24 32 13 17 1019.7 1019.5 0.0
26/04:00pm 25.8 22.3 13.3 46 7.3 S 24 33 13 18 1019.5 1019.3 0.0
26/03:30pm 25.5 21.8 12.7 45 7.4 SE 24 39 13 21 1019.5 1019.3 0.0
26/03:00pm 27.6 23.4 12.4 39 8.8 S 26 35 14 19 1019.7 1019.5 0.0
26/02:30pm 26.2 22.2 11.9 41 8.2 SSE 24 32 13 17 1020.0 1019.8 0.0
26/02:00pm 25.9 20.8 10.5 38 8.6 SSE 28 39 15 21 1020.5 1020.3 0.0
26/01:30pm 25.8 21.4 13.0 45 7.5 SSE 28 43 15 23 1020.7 1020.5 0.0
26/01:00pm 25.8 22.7 14.6 50 6.7 SSE 24 35 13 19 1020.8 1020.6 0.0
26/12:30pm 25.5 21.6 14.3 50 6.7 SSE 28 37 15 20 1021.1 1020.9 0.0
26/12:00pm 26.1 22.7 15.8 53 6.3 S 28 37 15 20 1021.2 1021.0 0.0
26/11:30am 25.1 22.1 14.9 53 6.1 SE 24 37 13 20 1021.1 1020.9 0.0
26/11:00am 24.5 21.9 16.0 59 5.2 SSE 24 35 13 19 1021.1 1020.9 0.0
26/10:30am 22.8 21.0 15.9 65 4.2 S 20 30 11 16 1021.3 1021.1 0.0
26/10:00am 22.9 20.2 15.5 63 4.4 S 24 35 13 19 1020.9 1020.7 0.0
26/09:30am 23.8 22.4 17.1 66 4.1 S 20 30 11 16 1020.8 1020.6 0.0
26/09:00am 22.3 21.8 17.7 75 2.9 S 17 28 9 15 1020.5 1020.3 1.8
26/08:30am 20.0 20.9 18.5 91 0.9 SSW 11 15 6 8 1020.3 1020.1 1.8
26/08:00am 18.9 20.0 17.9 94 0.6 SW 9 11 5 6 1020.2 1020.0 1.8
26/07:30am 18.8 19.0 17.6 93 0.7 S 13 20 7 11 1019.9 1019.7 1.0
26/07:00am 19.8 19.7 17.0 84 1.7 S 13 17 7 9 1019.5 1019.3 0.2
26/06:30am 19.6 19.8 16.8 84 1.7 SSW 11 15 6 8 1019.2 1019.0 0.2
26/06:00am 19.5 19.3 16.7 84 1.7 SSW 13 19 7 10 1018.7 1018.5 0.2
26/05:30am 19.6 19.0 16.6 83 1.8 SSW 15 22 8 12 1018.2 1018.0 0.2
26/05:00am 19.4 19.6 16.8 85 1.6 S 11 17 6 9 1017.9 1017.7 0.2
26/04:30am 19.0 19.1 16.4 85 1.6 SSW 11 15 6 8 1017.7 1017.5 0.2
26/04:00am 19.0 19.5 16.6 86 1.4 SSW 9 13 5 7 1017.6 1017.4 0.2
26/03:30am 18.9 19.3 16.3 85 1.6 SSW 9 13 5 7 1017.8 1017.6 0.2
26/03:00am 19.2 19.3 16.6 85 1.6 SSW 11 17 6 9 1018.1 1017.9 0.2
26/02:30am 19.6 20.5 16.6 83 1.8 SSW 7 13 4 7 1018.3 1018.1 0.2
26/02:00am 20.1 20.0 16.9 82 1.9 S 13 19 7 10 1018.6 1018.4 0.2
26/01:30am 20.2 20.5 17.0 82 2.0 SSW 11 15 6 8 1018.9 1018.7 0.2
26/01:00am 20.6 20.5 17.0 80 2.2 S 13 15 7 8 1019.4 1019.2 0.2
26/12:30am 20.7 20.6 16.9 79 2.3 S 13 17 7 9 1019.4 1019.2 0.2
26/12:00am 20.6 20.8 16.8 79 2.3 S 11 17 6 9 1019.2 1019.0 0.2
 
Date/Time
EDT
Temp
°C
App
Temp
°C
Dew
Point
°C
Rel
Hum
%
Delta-T
°C
Wind Press
QNH
hPa
Press
MSL
hPa
Rain since
9am
mm
Dir  Spd
km/h
Gust
km/h
Spd
kts
Gust
kts
25/11:30pm 20.4 20.2 16.6 79 2.3 S 13 15 7 8 1019.1 1018.9 0.2
25/11:00pm 20.3 19.6 16.5 79 2.3 S 15 19 8 10 1018.8 1018.6 0.2
25/10:30pm 20.6 19.6 16.6 78 2.4 S 17 22 9 12 1018.8 1018.6 0.2
25/10:00pm 20.6 19.7 16.8 79 2.3 SSE 17 22 9 12 1018.9 1018.7 0.2
25/09:30pm 20.3 20.3 17.1 82 2.0 SSE 13 19 7 10 1019.0 1018.8 0.2
25/09:00pm 20.4 20.4 17.2 82 2.0 SSW 13 20 7 11 1018.9 1018.7 0.2
25/08:30pm 20.1 19.9 17.7 86 1.5 S 15 20 8 11 1018.7 1018.5 0.2
25/08:00pm 20.1 19.6 17.9 87 1.4 S 17 22 9 12 1019.0 1018.8 0.2
25/07:30pm 20.0 18.9 17.8 87 1.4 S 20 26 11 14 1018.9 1018.7 0.0
25/07:00pm 20.7 19.5 17.5 82 2.0 S 20 28 11 15 1018.3 1018.1 0.0
25/06:30pm 21.1 19.4 17.3 79 2.3 S 22 30 12 16 1018.0 1017.8 0.0
25/06:00pm 22.2 20.9 17.3 74 3.0 SSE 20 28 11 15 1017.8 1017.6 0.0
25/05:30pm 22.4 20.4 17.3 73 3.1 S 24 32 13 17 1017.8 1017.6 0.0
25/05:00pm 23.7 21.4 16.7 65 4.3 S 24 35 13 19 1017.7 1017.5 0.0
25/04:30pm 23.0 20.2 17.2 70 3.6 SSE 28 37 15 20 1017.8 1017.6 0.0
25/04:00pm 24.2 20.4 17.2 65 4.3 S 33 46 18 25 1017.8 1017.6 0.0
25/03:30pm 23.6 20.7 17.1 67 4.0 S 28 39 15 21 1017.9 1017.7 0.0
25/03:00pm 25.4 22.8 17.8 62 4.8 S 28 37 15 20 1018.1 1017.9 0.0
25/02:30pm 24.6 22.7 17.6 65 4.4 SSW 24 35 13 19 1018.2 1018.0 0.0
25/02:00pm 24.2 22.3 17.7 67 4.1 SSW 24 37 13 20 1018.4 1018.2 0.0
25/01:30pm 25.0 23.3 18.0 65 4.4 SSW 24 33 13 18 1018.6 1018.4 0.0
25/01:00pm 24.5 22.8 18.2 68 4.0 S 24 32 13 17 1018.6 1018.4 0.0
25/12:30pm 24.2 22.7 17.7 67 4.1 SSW 22 30 12 16 1018.9 1018.7 0.0
25/12:00pm 25.1 24.4 18.3 66 4.3 SSW 19 28 10 15 1019.0 1018.8 0.0
25/11:30am 23.9 24.0 18.3 71 3.5 SW 15 20 8 11 1019.4 1019.2 0.0
25/11:00am 23.8 24.2 18.2 71 3.5 SW 13 19 7 10 1019.4 1019.2 0.0
25/10:30am 24.1 25.1 17.8 68 3.9 SSW 9 11 5 6 1019.2 1019.0 0.0
25/10:00am 24.4 25.5 18.1 68 4.0 SSE 9 15 5 8 1019.1 1018.9 0.0
25/09:30am 24.3 25.6 17.5 66 4.2 SW 7 11 4 6 1019.2 1019.0 0.0
25/09:00am 23.6 24.7 18.0 71 3.5 SSE 9 15 5 8 1019.0 1018.8 0.0
25/08:30am 21.9 24.9 18.5 81 2.1 CALM 0 0 0 0 1019.2 1019.0 0.0
25/08:00am 20.6 23.5 18.2 86 1.5 CALM 0 0 0 0 1019.0 1018.8 0.0
25/07:30am 20.0 22.8 18.0 88 1.2 CALM 0 0 0 0 1018.7 1018.5 0.0
25/07:00am 18.7 21.3 17.4 92 0.8 CALM 0 0 0 0 1018.4 1018.2 0.0
25/06:30am 18.0 18.8 16.3 90 1.0 SW 7 9 4 5 1018.1 1017.9 0.0
25/06:00am 18.4 20.6 16.6 89 1.1 CALM 0 0 0 0 1017.8 1017.6 0.0
25/05:30am 19.3 21.8 17.3 88 1.2 CALM 0 2 0 1 1017.8 1017.6 0.0
25/05:00am 19.6 22.1 17.2 86 1.5 CALM 0 0 0 0 1018.0 1017.8 0.0
25/04:30am 20.2 22.7 17.2 83 1.8 CALM 0 0 0 0 1017.9 1017.7 0.0
25/04:00am 20.7 22.5 17.3 81 2.1 SSE 4 7 2 4 1017.7 1017.5 0.0
25/03:30am 21.1 22.2 17.9 82 2.0 S 9 13 5 7 1018.0 1017.8 0.0
25/03:00am 19.9 20.9 17.7 87 1.4 SW 9 9 5 5 1018.0 1017.8 0.0
25/02:30am 19.5 20.7 16.9 85 1.6 SSW 6 9 3 5 1018.0 1017.8 0.0
25/02:00am 20.7 22.2 16.7 78 2.4 S 4 6 2 3 1018.2 1018.0 0.0
25/01:30am 21.4 22.5 17.2 77 2.6 SSE 7 9 4 5 1018.6 1018.4 0.0
25/01:00am 21.9 23.1 17.3 75 2.8 SSE 7 9 4 5 1018.9 1018.7 0.0
25/12:30am 22.0 22.8 17.2 74 3.0 S 9 13 5 7 1019.0 1018.8 0.0
25/12:00am 21.9 22.6 17.1 74 2.9 S 9 11 5 6 1019.1 1018.9 0.0
 
Date/Time
EDT
Temp
°C
App
Temp
°C
Dew
Point
°C
Rel
Hum
%
Delta-T
°C
Wind Press
QNH
hPa
Press
MSL
hPa
Rain since
9am
mm
Dir  Spd
km/h
Gust
km/h
Spd
kts
Gust
kts
24/11:30pm 21.7 21.7 17.3 76 2.7 S 13 15 7 8 1019.3 1019.1 0.0
24/11:00pm 21.0 21.2 16.8 77 2.6 SSW 11 13 6 7 1019.2 1019.0 0.0
24/10:30pm 21.7 21.6 16.9 74 2.9 SSE 13 15 7 8 1019.0 1018.8 0.0
24/10:00pm 22.2 22.0 16.7 71 3.4 SSE 13 17 7 9 1018.8 1018.6 0.0
24/09:30pm 22.4 22.2 16.7 70 3.5 SSE 13 17 7 9 1018.7 1018.5 0.0
24/09:00pm 22.8 22.2 16.6 68 3.8 SSE 15 20 8 11 1018.2 1018.0 0.0
24/08:30pm 23.2 22.1 16.3 65 4.2 SE 17 24 9 13 1017.8 1017.6 0.0
24/08:00pm 23.6 22.4 16.1 62 4.6 ESE 17 30 9 16 1017.6 1017.4 0.0
24/07:30pm 24.2 22.9 15.9 59 5.0 ESE 17 24 9 13 1017.2 1017.0 0.0
24/07:00pm 24.4 23.2 16.1 60 5.1 ESE 17 22 9 12 1017.0 1016.8 0.0
24/06:30pm 25.3 24.2 16.4 57 5.5 ESE 17 22 9 12 1017.0 1016.8 0.0
24/06:00pm 26.0 24.3 16.3 55 6.0 SE 20 30 11 16 1016.8 1016.6 0.0
24/05:30pm 26.4 24.3 16.1 53 6.3 SE 22 28 12 15 1016.3 1016.0 0.0
24/05:00pm 27.5 25.5 16.5 51 6.8 SSE 22 28 12 15 1016.5 1016.2 0.0
24/04:30pm 28.6 27.7 16.8 48 7.4 ESE 17 24 9 13 1016.3 1016.0 0.0
24/04:00pm 29.5 28.2 16.7 46 8.0 E 19 26 10 14 1016.4 1016.1 0.0
24/03:30pm 30.4 28.5 16.8 44 8.6 ESE 22 39 12 21 1016.1 1015.8 0.0
24/03:00pm 30.6 28.1 15.1 39 9.5 E 22 33 12 18 1016.2 1015.9 0.0
24/02:30pm 31.0 28.9 16.2 41 9.3 ESE 22 33 12 18 1016.7 1016.5 0.0
24/02:00pm 31.5 29.7 15.5 38 9.9 SE 19 30 10 16 1017.1 1016.9 0.0
24/01:30pm 30.9 28.5 15.3 38 9.6 SE 22 33 12 18 1017.5 1017.3 0.0
24/01:00pm 31.2 29.8 15.6 39 9.7 ESE 17 30 9 16 1017.9 1017.7 0.0
24/12:30pm 30.7 29.2 15.2 39 9.6 ESE 17 24 9 13 1018.3 1018.1 0.0
24/12:00pm 29.5 28.4 16.3 45 8.2 ESE 17 26 9 14 1018.8 1018.6 0.0
24/11:30am 28.3 27.5 15.2 44 8.0 ESE 13 20 7 11 1019.0 1018.8 0.0
24/11:00am 27.4 27.3 16.1 50 7.0 ESE 11 17 6 9 1019.4 1019.2 0.0
24/10:30am 27.1 28.0 16.7 53 6.5 E 7 15 4 8 1019.4 1019.2 0.0
24/10:00am 25.3 26.0 17.0 60 5.1 SSE 9 19 5 10 1019.5 1019.3 0.0
24/09:30am 24.6 24.5 16.1 59 5.2 S 11 15 6 8 1019.4 1019.2 0.0
24/09:00am 23.7 23.2 16.0 62 4.7 SSE 13 15 7 8 1019.2 1019.0 0.0
24/08:30am 22.2 22.9 17.1 73 3.1 SSE 9 13 5 7 1019.1 1018.9 0.0
24/08:00am 19.6 21.8 16.4 82 1.9 CALM 0 0 0 0 1018.9 1018.7 0.0
24/07:30am 17.1 18.9 15.6 91 0.9 CALM 0 0 0 0 1018.7 1018.5 0.0
24/07:00am 15.7 16.8 14.6 93 0.6 SSE 2 6 1 3 1018.1 1017.9 0.0
24/06:30am 15.9 17.4 14.6 92 0.7 CALM 0 0 0 0 1017.6 1017.4 0.0
24/06:00am 16.2 17.9 15.1 93 0.6 CALM 0 0 0 0 1017.4 1017.2 0.0
24/05:30am 15.4 15.5 13.9 91 0.8 SW 6 7 3 4 1017.0 1016.8 0.0
24/05:00am 16.1 16.8 14.6 91 0.9 WSW 4 7 2 4 1016.5 1016.2 0.0
24/04:30am 16.4 18.0 14.9 91 0.9 CALM 0 0 0 0 1016.3 1016.0 0.0
24/04:00am 16.2 17.2 14.4 89 1.0 SW 2 6 1 3 1016.3 1016.0 0.0
24/03:30am 16.6 18.1 14.6 88 1.2 CALM 0 0 0 0 1016.3 1016.0 0.0
24/03:00am 17.4 19.0 15.0 86 1.4 CALM 0 0 0 0 1016.2 1015.9 0.0
24/02:30am 17.8 19.5 15.2 85 1.5 CALM 0 6 0 3 1016.4 1016.1 0.0
24/02:00am 18.1 19.0 15.0 82 1.8 S 4 7 2 4 1016.6 1016.3 0.0
24/01:30am 19.0 19.2 14.7 76 2.5 S 7 9 4 5 1016.8 1016.6 0.0
24/01:00am 20.7 20.8 15.5 72 3.1 SSW 9 11 5 6 1016.9 1016.7 0.0
24/12:30am 20.6 20.7 15.6 73 3.0 SSW 9 11 5 6 1017.0 1016.8 0.0
24/12:00am 21.3 21.4 15.6 70 3.4 SSW 9 11 5 6 1017.1 1016.9 0.0
 
Date/Time
EDT
Temp
°C
App
Temp
°C
Dew
Point
°C
Rel
Hum
%
Delta-T
°C
Wind Press
QNH
hPa
Press
MSL
hPa
Rain since
9am
mm
Dir  Spd
km/h
Gust
km/h
Spd
kts
Gust
kts
23/11:30pm 21.9 22.5 15.7 68 3.7 SSW 7 9 4 5 1017.2 1017.0 0.0
23/11:00pm 22.2 22.3 15.5 66 4.0 SSE 9 13 5 7 1017.3 1017.1 0.0
23/10:30pm 22.7 23.0 16.0 66 4.1 S 9 15 5 8 1017.4 1017.2 0.0
23/10:00pm 23.0 23.3 16.1 65 4.2 SSE 9 13 5 7 1017.5 1017.3 0.0
23/09:30pm 23.7 24.1 16.2 63 4.6 S 9 11 5 6 1017.4 1017.2 0.0

Other Formats:

Comma delimited format used in spreadsheet applications
http://www.bom.gov.au/fwo/IDN60801/IDN60801.95771.axf

JavaScript Object Notation format (JSON) in row-major order
http://www.bom.gov.au/fwo/IDN60801/IDN60801.95771.json